sensor_id;sensor_type;location;lat;lon;timestamp;P1;durP1;ratioP1;P2;durP2;ratioP2
49812;SDS011;35706;52.100;5.056;2024-01-30T00:00:50;18.80;;;9.52;;
49812;SDS011;35706;52.100;5.056;2024-01-30T00:01:51;19.42;;;10.02;;
49812;SDS011;35706;52.100;5.056;2024-01-30T00:02:51;17.88;;;10.20;;
49812;SDS011;35706;52.100;5.056;2024-01-30T00:03:51;16.98;;;9.68;;
49812;SDS011;35706;52.100;5.056;2024-01-30T00:04:52;17.00;;;9.82;;
49812;SDS011;35706;52.100;5.056;2024-01-30T00:05:52;16.70;;;10.40;;
49812;SDS011;35706;52.100;5.056;2024-01-30T00:06:52;15.75;;;10.00;;
49812;SDS011;35706;52.100;5.056;2024-01-30T00:07:53;14.90;;;9.43;;
49812;SDS011;35706;52.100;5.056;2024-01-30T00:08:53;12.77;;;9.00;;
49812;SDS011;35706;52.100;5.056;2024-01-30T00:09:53;18.05;;;10.00;;
49812;SDS011;35706;52.100;5.056;2024-01-30T00:10:54;20.13;;;10.35;;
49812;SDS011;35706;52.100;5.056;2024-01-30T00:11:55;17.92;;;9.48;;
49812;SDS011;35706;52.100;5.056;2024-01-30T00:12:55;20.63;;;9.90;;
49812;SDS011;35706;52.100;5.056;2024-01-30T00:13:56;16.48;;;10.38;;
49812;SDS011;35706;52.100;5.056;2024-01-30T00:14:56;15.00;;;9.98;;
49812;SDS011;35706;52.100;5.056;2024-01-30T00:15:56;14.80;;;9.60;;
49812;SDS011;35706;52.100;5.056;2024-01-30T00:16:57;17.08;;;9.07;;
49812;SDS011;35706;52.100;5.056;2024-01-30T00:17:57;16.23;;;8.85;;
49812;SDS011;35706;52.100;5.056;2024-01-30T00:18:57;17.05;;;10.10;;
49812;SDS011;35706;52.100;5.056;2024-01-30T00:19:58;15.10;;;9.88;;
49812;SDS011;35706;52.100;5.056;2024-01-30T00:20:58;15.70;;;9.35;;
49812;SDS011;35706;52.100;5.056;2024-01-30T00:21:58;16.15;;;9.90;;
49812;SDS011;35706;52.100;5.056;2024-01-30T00:22:59;16.77;;;10.40;;
49812;SDS011;35706;52.100;5.056;2024-01-30T00:23:59;17.70;;;10.15;;
49812;SDS011;35706;52.100;5.056;2024-01-30T00:24:59;15.75;;;9.57;;
49812;SDS011;35706;52.100;5.056;2024-01-30T00:26:00;19.13;;;9.95;;
49812;SDS011;35706;52.100;5.056;2024-01-30T00:27:01;16.63;;;10.00;;
49812;SDS011;35706;52.100;5.056;2024-01-30T00:28:01;15.35;;;9.45;;
49812;SDS011;35706;52.100;5.056;2024-01-30T00:29:01;17.48;;;9.25;;
49812;SDS011;35706;52.100;5.056;2024-01-30T00:30:02;13.75;;;9.43;;
49812;SDS011;35706;52.100;5.056;2024-01-30T00:31:02;15.32;;;9.30;;
49812;SDS011;35706;52.100;5.056;2024-01-30T00:32:03;14.20;;;9.05;;
49812;SDS011;35706;52.100;5.056;2024-01-30T00:33:04;16.25;;;9.15;;
49812;SDS011;35706;52.100;5.056;2024-01-30T00:34:04;18.33;;;9.50;;
49812;SDS011;35706;52.100;5.056;2024-01-30T00:35:05;13.38;;;8.43;;
49812;SDS011;35706;52.100;5.056;2024-01-30T00:36:05;16.90;;;9.75;;
49812;SDS011;35706;52.100;5.056;2024-01-30T00:37:06;12.98;;;9.05;;
49812;SDS011;35706;52.100;5.056;2024-01-30T00:38:07;14.40;;;8.88;;
49812;SDS011;35706;52.100;5.056;2024-01-30T00:39:07;17.13;;;9.20;;
49812;SDS011;35706;52.100;5.056;2024-01-30T00:40:09;14.88;;;9.02;;
49812;SDS011;35706;52.100;5.056;2024-01-30T00:41:17;14.05;;;9.30;;
49812;SDS011;35706;52.100;5.056;2024-01-30T00:42:17;14.93;;;9.13;;
49812;SDS011;35706;52.100;5.056;2024-01-30T00:43:18;17.10;;;8.48;;
49812;SDS011;35706;52.100;5.056;2024-01-30T00:44:18;15.77;;;9.05;;
49812;SDS011;35706;52.100;5.056;2024-01-30T00:45:18;12.73;;;9.38;;
49812;SDS011;35706;52.100;5.056;2024-01-30T00:46:19;14.40;;;8.23;;
49812;SDS011;35706;52.100;5.056;2024-01-30T00:47:19;15.02;;;9.35;;
49812;SDS011;35706;52.100;5.056;2024-01-30T00:48:19;17.20;;;9.15;;
49812;SDS011;35706;52.100;5.056;2024-01-30T00:49:20;15.18;;;9.18;;
49812;SDS011;35706;52.100;5.056;2024-01-30T00:50:20;10.30;;;8.55;;
49812;SDS011;35706;52.100;5.056;2024-01-30T00:51:21;13.45;;;8.65;;
49812;SDS011;35706;52.100;5.056;2024-01-30T00:52:21;13.55;;;7.90;;
49812;SDS011;35706;52.100;5.056;2024-01-30T00:53:21;12.95;;;8.73;;
49812;SDS011;35706;52.100;5.056;2024-01-30T00:54:22;12.40;;;8.43;;
49812;SDS011;35706;52.100;5.056;2024-01-30T00:55:22;14.73;;;7.95;;
49812;SDS011;35706;52.100;5.056;2024-01-30T00:56:22;12.68;;;8.27;;
49812;SDS011;35706;52.100;5.056;2024-01-30T00:57:24;11.65;;;8.20;;
49812;SDS011;35706;52.100;5.056;2024-01-30T00:58:24;15.93;;;7.65;;
49812;SDS011;35706;52.100;5.056;2024-01-30T00:59:24;15.25;;;8.82;;
49812;SDS011;35706;52.100;5.056;2024-01-30T01:00:25;13.50;;;8.02;;
49812;SDS011;35706;52.100;5.056;2024-01-30T01:01:28;16.00;;;8.80;;
49812;SDS011;35706;52.100;5.056;2024-01-30T01:02:29;13.82;;;8.60;;
49812;SDS011;35706;52.100;5.056;2024-01-30T01:03:29;13.38;;;7.88;;
49812;SDS011;35706;52.100;5.056;2024-01-30T01:04:30;9.68;;;7.40;;
49812;SDS011;35706;52.100;5.056;2024-01-30T01:05:30;13.40;;;8.23;;
49812;SDS011;35706;52.100;5.056;2024-01-30T01:06:30;14.55;;;7.70;;
49812;SDS011;35706;52.100;5.056;2024-01-30T01:07:31;12.75;;;8.32;;
49812;SDS011;35706;52.100;5.056;2024-01-30T01:08:31;13.20;;;8.55;;
49812;SDS011;35706;52.100;5.056;2024-01-30T01:09:31;12.52;;;8.52;;
49812;SDS011;35706;52.100;5.056;2024-01-30T01:10:32;13.23;;;7.97;;
49812;SDS011;35706;52.100;5.056;2024-01-30T01:11:32;15.02;;;7.93;;
49812;SDS011;35706;52.100;5.056;2024-01-30T01:12:32;14.38;;;8.48;;
49812;SDS011;35706;52.100;5.056;2024-01-30T01:13:33;15.95;;;8.05;;
49812;SDS011;35706;52.100;5.056;2024-01-30T01:14:33;13.40;;;8.43;;
49812;SDS011;35706;52.100;5.056;2024-01-30T01:15:36;11.80;;;7.38;;
49812;SDS011;35706;52.100;5.056;2024-01-30T01:16:37;18.80;;;8.82;;
49812;SDS011;35706;52.100;5.056;2024-01-30T01:17:37;11.60;;;8.35;;
49812;SDS011;35706;52.100;5.056;2024-01-30T01:18:39;13.68;;;8.95;;
49812;SDS011;35706;52.100;5.056;2024-01-30T01:19:39;11.10;;;8.00;;
49812;SDS011;35706;52.100;5.056;2024-01-30T01:20:39;11.48;;;7.85;;
49812;SDS011;35706;52.100;5.056;2024-01-30T01:21:40;12.95;;;7.82;;
49812;SDS011;35706;52.100;5.056;2024-01-30T01:22:40;11.80;;;8.40;;
49812;SDS011;35706;52.100;5.056;2024-01-30T01:23:40;16.73;;;8.07;;
49812;SDS011;35706;52.100;5.056;2024-01-30T01:24:41;16.63;;;8.32;;
49812;SDS011;35706;52.100;5.056;2024-01-30T01:25:41;14.60;;;8.55;;
49812;SDS011;35706;52.100;5.056;2024-01-30T01:26:41;14.32;;;8.07;;
49812;SDS011;35706;52.100;5.056;2024-01-30T01:27:42;14.60;;;7.93;;
49812;SDS011;35706;52.100;5.056;2024-01-30T01:28:43;13.23;;;7.63;;
49812;SDS011;35706;52.100;5.056;2024-01-30T01:29:43;11.05;;;7.57;;
49812;SDS011;35706;52.100;5.056;2024-01-30T01:30:43;12.00;;;7.80;;
49812;SDS011;35706;52.100;5.056;2024-01-30T01:31:44;12.75;;;8.65;;
49812;SDS011;35706;52.100;5.056;2024-01-30T01:32:44;8.98;;;7.72;;
49812;SDS011;35706;52.100;5.056;2024-01-30T01:33:50;13.65;;;7.32;;
49812;SDS011;35706;52.100;5.056;2024-01-30T01:34:50;11.90;;;8.07;;
49812;SDS011;35706;52.100;5.056;2024-01-30T01:35:51;13.02;;;7.70;;
49812;SDS011;35706;52.100;5.056;2024-01-30T01:36:51;12.60;;;7.88;;
49812;SDS011;35706;52.100;5.056;2024-01-30T01:37:52;11.23;;;7.85;;
49812;SDS011;35706;52.100;5.056;2024-01-30T01:38:55;10.90;;;7.70;;
49812;SDS011;35706;52.100;5.056;2024-01-30T01:39:56;11.13;;;7.22;;
49812;SDS011;35706;52.100;5.056;2024-01-30T01:40:56;17.20;;;7.93;;
49812;SDS011;35706;52.100;5.056;2024-01-30T01:41:56;12.23;;;8.45;;
49812;SDS011;35706;52.100;5.056;2024-01-30T01:42:57;10.23;;;8.15;;
49812;SDS011;35706;52.100;5.056;2024-01-30T01:43:57;11.38;;;7.63;;
49812;SDS011;35706;52.100;5.056;2024-01-30T01:44:58;12.95;;;7.75;;
49812;SDS011;35706;52.100;5.056;2024-01-30T01:45:58;14.15;;;8.48;;
49812;SDS011;35706;52.100;5.056;2024-01-30T01:46:58;13.63;;;8.13;;
49812;SDS011;35706;52.100;5.056;2024-01-30T01:47:59;16.70;;;8.57;;
49812;SDS011;35706;52.100;5.056;2024-01-30T01:49:00;12.75;;;7.85;;
49812;SDS011;35706;52.100;5.056;2024-01-30T01:50:02;10.18;;;7.53;;
49812;SDS011;35706;52.100;5.056;2024-01-30T01:51:03;13.60;;;8.00;;
49812;SDS011;35706;52.100;5.056;2024-01-30T01:52:03;10.43;;;7.35;;
49812;SDS011;35706;52.100;5.056;2024-01-30T01:53:05;12.73;;;8.23;;
49812;SDS011;35706;52.100;5.056;2024-01-30T01:54:07;11.98;;;7.57;;
49812;SDS011;35706;52.100;5.056;2024-01-30T01:55:08;11.05;;;8.00;;
49812;SDS011;35706;52.100;5.056;2024-01-30T01:56:09;12.52;;;8.07;;
49812;SDS011;35706;52.100;5.056;2024-01-30T01:57:10;14.27;;;7.72;;
49812;SDS011;35706;52.100;5.056;2024-01-30T01:58:11;12.48;;;7.43;;
49812;SDS011;35706;52.100;5.056;2024-01-30T01:59:12;17.25;;;7.93;;
49812;SDS011;35706;52.100;5.056;2024-01-30T02:00:13;9.48;;;8.00;;
49812;SDS011;35706;52.100;5.056;2024-01-30T02:01:14;12.55;;;7.47;;
49812;SDS011;35706;52.100;5.056;2024-01-30T02:02:14;19.17;;;7.93;;
49812;SDS011;35706;52.100;5.056;2024-01-30T02:03:19;13.38;;;8.15;;
49812;SDS011;35706;52.100;5.056;2024-01-30T02:04:21;12.98;;;7.78;;
49812;SDS011;35706;52.100;5.056;2024-01-30T02:05:21;11.52;;;7.97;;
49812;SDS011;35706;52.100;5.056;2024-01-30T02:06:22;13.73;;;7.85;;
49812;SDS011;35706;52.100;5.056;2024-01-30T02:07:22;12.25;;;7.82;;
49812;SDS011;35706;52.100;5.056;2024-01-30T02:08:24;12.10;;;8.13;;
49812;SDS011;35706;52.100;5.056;2024-01-30T02:09:24;15.35;;;8.15;;
49812;SDS011;35706;52.100;5.056;2024-01-30T02:10:24;12.43;;;7.65;;
49812;SDS011;35706;52.100;5.056;2024-01-30T02:11:25;13.70;;;8.15;;
49812;SDS011;35706;52.100;5.056;2024-01-30T02:12:25;13.13;;;7.25;;
49812;SDS011;35706;52.100;5.056;2024-01-30T02:13:25;16.52;;;8.27;;
49812;SDS011;35706;52.100;5.056;2024-01-30T02:14:26;16.63;;;9.35;;
49812;SDS011;35706;52.100;5.056;2024-01-30T02:15:26;12.38;;;7.60;;
49812;SDS011;35706;52.100;5.056;2024-01-30T02:16:26;13.65;;;7.72;;
49812;SDS011;35706;52.100;5.056;2024-01-30T02:17:28;14.50;;;7.78;;
49812;SDS011;35706;52.100;5.056;2024-01-30T02:18:28;10.43;;;7.95;;
49812;SDS011;35706;52.100;5.056;2024-01-30T02:19:28;12.73;;;7.93;;
49812;SDS011;35706;52.100;5.056;2024-01-30T02:20:28;14.13;;;7.82;;
49812;SDS011;35706;52.100;5.056;2024-01-30T02:21:30;8.80;;;7.13;;
49812;SDS011;35706;52.100;5.056;2024-01-30T02:22:31;10.52;;;7.75;;
49812;SDS011;35706;52.100;5.056;2024-01-30T02:23:33;11.85;;;8.02;;
49812;SDS011;35706;52.100;5.056;2024-01-30T02:24:34;10.60;;;7.05;;
49812;SDS011;35706;52.100;5.056;2024-01-30T02:25:36;10.27;;;7.15;;
49812;SDS011;35706;52.100;5.056;2024-01-30T02:26:43;11.65;;;7.80;;
49812;SDS011;35706;52.100;5.056;2024-01-30T02:27:44;12.05;;;7.60;;
49812;SDS011;35706;52.100;5.056;2024-01-30T02:28:44;14.77;;;8.25;;
49812;SDS011;35706;52.100;5.056;2024-01-30T02:29:44;13.35;;;7.80;;
49812;SDS011;35706;52.100;5.056;2024-01-30T02:30:45;11.27;;;7.55;;
49812;SDS011;35706;52.100;5.056;2024-01-30T02:31:46;12.68;;;7.55;;
49812;SDS011;35706;52.100;5.056;2024-01-30T02:32:46;11.68;;;7.82;;
49812;SDS011;35706;52.100;5.056;2024-01-30T02:33:47;15.10;;;7.75;;
49812;SDS011;35706;52.100;5.056;2024-01-30T02:34:47;10.75;;;7.30;;
49812;SDS011;35706;52.100;5.056;2024-01-30T02:35:47;12.93;;;8.15;;
49812;SDS011;35706;52.100;5.056;2024-01-30T02:36:48;12.00;;;7.35;;
49812;SDS011;35706;52.100;5.056;2024-01-30T02:37:48;10.23;;;7.78;;
49812;SDS011;35706;52.100;5.056;2024-01-30T02:38:49;12.73;;;7.50;;
49812;SDS011;35706;52.100;5.056;2024-01-30T02:39:49;12.10;;;7.88;;
49812;SDS011;35706;52.100;5.056;2024-01-30T02:40:49;12.25;;;7.72;;
49812;SDS011;35706;52.100;5.056;2024-01-30T02:41:50;10.90;;;7.05;;
49812;SDS011;35706;52.100;5.056;2024-01-30T02:42:50;12.57;;;7.85;;
49812;SDS011;35706;52.100;5.056;2024-01-30T02:43:51;12.60;;;8.20;;
49812;SDS011;35706;52.100;5.056;2024-01-30T02:44:51;13.23;;;8.50;;
49812;SDS011;35706;52.100;5.056;2024-01-30T02:45:51;12.82;;;8.23;;
49812;SDS011;35706;52.100;5.056;2024-01-30T02:46:52;11.77;;;8.18;;
49812;SDS011;35706;52.100;5.056;2024-01-30T02:47:57;11.15;;;8.05;;
49812;SDS011;35706;52.100;5.056;2024-01-30T02:48:57;15.93;;;7.97;;
49812;SDS011;35706;52.100;5.056;2024-01-30T02:49:57;17.83;;;8.40;;
49812;SDS011;35706;52.100;5.056;2024-01-30T02:50:58;11.27;;;8.10;;
49812;SDS011;35706;52.100;5.056;2024-01-30T02:51:58;14.75;;;8.48;;
49812;SDS011;35706;52.100;5.056;2024-01-30T02:52:59;10.38;;;7.25;;
49812;SDS011;35706;52.100;5.056;2024-01-30T02:53:59;10.07;;;7.22;;
49812;SDS011;35706;52.100;5.056;2024-01-30T02:54:59;14.73;;;7.97;;
49812;SDS011;35706;52.100;5.056;2024-01-30T02:56:00;12.00;;;7.72;;
49812;SDS011;35706;52.100;5.056;2024-01-30T02:57:02;11.23;;;7.65;;
49812;SDS011;35706;52.100;5.056;2024-01-30T02:58:03;11.20;;;7.38;;
49812;SDS011;35706;52.100;5.056;2024-01-30T02:59:03;11.05;;;7.80;;
49812;SDS011;35706;52.100;5.056;2024-01-30T03:00:04;9.02;;;7.57;;
49812;SDS011;35706;52.100;5.056;2024-01-30T03:01:06;15.45;;;7.95;;
49812;SDS011;35706;52.100;5.056;2024-01-30T03:02:07;11.30;;;7.68;;
49812;SDS011;35706;52.100;5.056;2024-01-30T03:03:07;9.52;;;7.28;;
49812;SDS011;35706;52.100;5.056;2024-01-30T03:04:07;11.75;;;7.57;;
49812;SDS011;35706;52.100;5.056;2024-01-30T03:05:08;11.63;;;7.90;;
49812;SDS011;35706;52.100;5.056;2024-01-30T03:06:08;10.93;;;7.05;;
49812;SDS011;35706;52.100;5.056;2024-01-30T03:07:09;14.02;;;8.10;;
49812;SDS011;35706;52.100;5.056;2024-01-30T03:08:09;11.32;;;7.15;;
49812;SDS011;35706;52.100;5.056;2024-01-30T03:09:10;12.27;;;7.85;;
49812;SDS011;35706;52.100;5.056;2024-01-30T03:10:10;10.52;;;7.63;;
49812;SDS011;35706;52.100;5.056;2024-01-30T03:11:11;11.95;;;8.20;;
49812;SDS011;35706;52.100;5.056;2024-01-30T03:12:11;13.13;;;7.75;;
49812;SDS011;35706;52.100;5.056;2024-01-30T03:13:11;13.73;;;7.63;;
49812;SDS011;35706;52.100;5.056;2024-01-30T03:14:12;10.27;;;7.15;;
49812;SDS011;35706;52.100;5.056;2024-01-30T03:15:12;13.55;;;7.97;;
49812;SDS011;35706;52.100;5.056;2024-01-30T03:16:12;10.82;;;7.65;;
49812;SDS011;35706;52.100;5.056;2024-01-30T03:17:13;10.88;;;7.80;;
49812;SDS011;35706;52.100;5.056;2024-01-30T03:18:13;13.27;;;7.88;;
49812;SDS011;35706;52.100;5.056;2024-01-30T03:19:14;12.60;;;8.48;;
49812;SDS011;35706;52.100;5.056;2024-01-30T03:20:14;9.85;;;7.72;;
49812;SDS011;35706;52.100;5.056;2024-01-30T03:21:14;12.57;;;7.80;;
49812;SDS011;35706;52.100;5.056;2024-01-30T03:22:15;10.30;;;7.88;;
49812;SDS011;35706;52.100;5.056;2024-01-30T03:23:15;13.15;;;8.25;;
49812;SDS011;35706;52.100;5.056;2024-01-30T03:24:15;14.13;;;7.72;;
49812;SDS011;35706;52.100;5.056;2024-01-30T03:25:15;13.35;;;7.20;;
49812;SDS011;35706;52.100;5.056;2024-01-30T03:26:16;12.38;;;7.30;;
49812;SDS011;35706;52.100;5.056;2024-01-30T03:27:16;16.77;;;8.40;;
49812;SDS011;35706;52.100;5.056;2024-01-30T03:28:16;13.73;;;7.45;;
49812;SDS011;35706;52.100;5.056;2024-01-30T03:29:17;11.48;;;7.50;;
49812;SDS011;35706;52.100;5.056;2024-01-30T03:30:17;17.27;;;8.10;;
49812;SDS011;35706;52.100;5.056;2024-01-30T03:31:18;10.35;;;7.78;;
49812;SDS011;35706;52.100;5.056;2024-01-30T03:32:18;12.20;;;7.43;;
49812;SDS011;35706;52.100;5.056;2024-01-30T03:33:18;15.15;;;7.88;;
49812;SDS011;35706;52.100;5.056;2024-01-30T03:34:19;12.07;;;7.45;;
49812;SDS011;35706;52.100;5.056;2024-01-30T03:35:19;12.48;;;7.10;;
49812;SDS011;35706;52.100;5.056;2024-01-30T03:36:19;10.35;;;7.25;;
49812;SDS011;35706;52.100;5.056;2024-01-30T03:37:20;11.73;;;7.03;;
49812;SDS011;35706;52.100;5.056;2024-01-30T03:38:20;11.55;;;7.50;;
49812;SDS011;35706;52.100;5.056;2024-01-30T03:39:20;11.35;;;7.57;;
49812;SDS011;35706;52.100;5.056;2024-01-30T03:40:21;13.23;;;7.80;;
49812;SDS011;35706;52.100;5.056;2024-01-30T03:41:21;11.82;;;7.43;;
49812;SDS011;35706;52.100;5.056;2024-01-30T03:42:21;8.70;;;7.28;;
49812;SDS011;35706;52.100;5.056;2024-01-30T03:43:22;10.70;;;7.20;;
49812;SDS011;35706;52.100;5.056;2024-01-30T03:44:22;12.43;;;7.70;;
49812;SDS011;35706;52.100;5.056;2024-01-30T03:45:23;8.40;;;6.82;;
49812;SDS011;35706;52.100;5.056;2024-01-30T03:46:23;9.90;;;7.53;;
49812;SDS011;35706;52.100;5.056;2024-01-30T03:47:24;14.98;;;8.20;;
49812;SDS011;35706;52.100;5.056;2024-01-30T03:48:24;13.23;;;7.38;;
49812;SDS011;35706;52.100;5.056;2024-01-30T03:49:25;13.15;;;7.97;;
49812;SDS011;35706;52.100;5.056;2024-01-30T03:50:26;9.25;;;7.00;;
49812;SDS011;35706;52.100;5.056;2024-01-30T03:51:26;11.07;;;7.90;;
49812;SDS011;35706;52.100;5.056;2024-01-30T03:52:26;13.02;;;7.70;;
49812;SDS011;35706;52.100;5.056;2024-01-30T03:53:27;12.55;;;7.82;;
49812;SDS011;35706;52.100;5.056;2024-01-30T03:54:27;12.27;;;6.97;;
49812;SDS011;35706;52.100;5.056;2024-01-30T03:55:27;10.48;;;7.45;;
49812;SDS011;35706;52.100;5.056;2024-01-30T03:56:28;12.73;;;7.75;;
49812;SDS011;35706;52.100;5.056;2024-01-30T03:57:28;11.52;;;7.32;;
49812;SDS011;35706;52.100;5.056;2024-01-30T03:58:29;13.18;;;7.93;;
49812;SDS011;35706;52.100;5.056;2024-01-30T03:59:29;12.95;;;7.78;;
49812;SDS011;35706;52.100;5.056;2024-01-30T04:00:29;13.20;;;8.50;;
49812;SDS011;35706;52.100;5.056;2024-01-30T04:01:30;10.35;;;7.28;;
49812;SDS011;35706;52.100;5.056;2024-01-30T04:02:30;14.13;;;7.68;;
49812;SDS011;35706;52.100;5.056;2024-01-30T04:03:30;13.77;;;7.78;;
49812;SDS011;35706;52.100;5.056;2024-01-30T04:04:31;13.50;;;7.25;;
49812;SDS011;35706;52.100;5.056;2024-01-30T04:05:31;12.00;;;6.78;;
49812;SDS011;35706;52.100;5.056;2024-01-30T04:06:31;11.82;;;6.95;;
49812;SDS011;35706;52.100;5.056;2024-01-30T04:07:32;10.65;;;7.32;;
49812;SDS011;35706;52.100;5.056;2024-01-30T04:08:32;14.60;;;7.57;;
49812;SDS011;35706;52.100;5.056;2024-01-30T04:09:32;11.73;;;7.35;;
49812;SDS011;35706;52.100;5.056;2024-01-30T04:10:33;7.80;;;7.00;;
49812;SDS011;35706;52.100;5.056;2024-01-30T04:11:33;10.88;;;7.45;;
49812;SDS011;35706;52.100;5.056;2024-01-30T04:12:34;9.85;;;7.47;;
49812;SDS011;35706;52.100;5.056;2024-01-30T04:13:34;12.85;;;7.80;;
49812;SDS011;35706;52.100;5.056;2024-01-30T04:14:37;12.48;;;7.00;;
49812;SDS011;35706;52.100;5.056;2024-01-30T04:15:40;11.95;;;7.28;;
49812;SDS011;35706;52.100;5.056;2024-01-30T04:16:40;12.45;;;7.43;;
49812;SDS011;35706;52.100;5.056;2024-01-30T04:17:40;12.70;;;7.30;;
49812;SDS011;35706;52.100;5.056;2024-01-30T04:18:40;10.63;;;7.13;;
49812;SDS011;35706;52.100;5.056;2024-01-30T04:19:41;9.55;;;6.60;;
49812;SDS011;35706;52.100;5.056;2024-01-30T04:20:41;10.52;;;7.45;;
49812;SDS011;35706;52.100;5.056;2024-01-30T04:21:41;10.52;;;7.53;;
49812;SDS011;35706;52.100;5.056;2024-01-30T04:22:43;12.15;;;7.05;;
49812;SDS011;35706;52.100;5.056;2024-01-30T04:23:44;11.32;;;7.78;;
49812;SDS011;35706;52.100;5.056;2024-01-30T04:24:44;13.48;;;7.53;;
49812;SDS011;35706;52.100;5.056;2024-01-30T04:25:45;11.73;;;7.07;;
49812;SDS011;35706;52.100;5.056;2024-01-30T04:26:45;13.82;;;7.97;;
49812;SDS011;35706;52.100;5.056;2024-01-30T04:27:45;13.27;;;7.90;;
49812;SDS011;35706;52.100;5.056;2024-01-30T04:28:46;13.93;;;7.88;;
49812;SDS011;35706;52.100;5.056;2024-01-30T04:29:46;11.02;;;6.45;;
49812;SDS011;35706;52.100;5.056;2024-01-30T04:30:46;12.32;;;7.55;;
49812;SDS011;35706;52.100;5.056;2024-01-30T04:31:47;13.93;;;6.97;;
49812;SDS011;35706;52.100;5.056;2024-01-30T04:32:47;10.77;;;7.70;;
49812;SDS011;35706;52.100;5.056;2024-01-30T04:33:47;12.30;;;6.70;;
49812;SDS011;35706;52.100;5.056;2024-01-30T04:34:48;13.30;;;7.65;;
49812;SDS011;35706;52.100;5.056;2024-01-30T04:35:48;15.82;;;7.72;;
49812;SDS011;35706;52.100;5.056;2024-01-30T04:36:48;9.38;;;6.88;;
49812;SDS011;35706;52.100;5.056;2024-01-30T04:37:48;11.60;;;6.60;;
49812;SDS011;35706;52.100;5.056;2024-01-30T04:38:49;12.07;;;7.35;;
49812;SDS011;35706;52.100;5.056;2024-01-30T04:39:49;13.50;;;7.05;;
49812;SDS011;35706;52.100;5.056;2024-01-30T04:40:49;8.95;;;6.78;;
49812;SDS011;35706;52.100;5.056;2024-01-30T04:41:50;14.65;;;7.22;;
49812;SDS011;35706;52.100;5.056;2024-01-30T04:42:50;13.57;;;7.15;;
49812;SDS011;35706;52.100;5.056;2024-01-30T04:43:50;11.63;;;6.53;;
49812;SDS011;35706;52.100;5.056;2024-01-30T04:44:51;8.65;;;6.47;;
49812;SDS011;35706;52.100;5.056;2024-01-30T04:45:51;11.50;;;6.47;;
49812;SDS011;35706;52.100;5.056;2024-01-30T04:46:51;14.98;;;7.22;;
49812;SDS011;35706;52.100;5.056;2024-01-30T04:47:51;14.52;;;6.85;;
49812;SDS011;35706;52.100;5.056;2024-01-30T04:48:52;9.55;;;6.85;;
49812;SDS011;35706;52.100;5.056;2024-01-30T04:49:52;13.80;;;6.93;;
49812;SDS011;35706;52.100;5.056;2024-01-30T04:50:52;10.55;;;6.75;;
49812;SDS011;35706;52.100;5.056;2024-01-30T04:51:53;7.78;;;6.70;;
49812;SDS011;35706;52.100;5.056;2024-01-30T04:52:53;12.30;;;6.60;;
49812;SDS011;35706;52.100;5.056;2024-01-30T04:53:54;10.07;;;6.47;;
49812;SDS011;35706;52.100;5.056;2024-01-30T04:54:55;11.75;;;6.68;;
49812;SDS011;35706;52.100;5.056;2024-01-30T04:55:55;10.50;;;7.00;;
49812;SDS011;35706;52.100;5.056;2024-01-30T04:56:55;11.55;;;6.93;;
49812;SDS011;35706;52.100;5.056;2024-01-30T04:57:55;10.38;;;6.28;;
49812;SDS011;35706;52.100;5.056;2024-01-30T04:58:56;11.45;;;6.55;;
49812;SDS011;35706;52.100;5.056;2024-01-30T04:59:56;11.45;;;6.60;;
49812;SDS011;35706;52.100;5.056;2024-01-30T05:00:56;12.98;;;6.05;;
49812;SDS011;35706;52.100;5.056;2024-01-30T05:01:57;12.93;;;6.80;;
49812;SDS011;35706;52.100;5.056;2024-01-30T05:02:57;16.05;;;6.35;;
49812;SDS011;35706;52.100;5.056;2024-01-30T05:03:57;11.45;;;6.47;;
49812;SDS011;35706;52.100;5.056;2024-01-30T05:04:58;11.05;;;6.03;;
49812;SDS011;35706;52.100;5.056;2024-01-30T05:05:58;15.63;;;6.40;;
49812;SDS011;35706;52.100;5.056;2024-01-30T05:06:58;9.77;;;6.55;;
49812;SDS011;35706;52.100;5.056;2024-01-30T05:07:59;9.88;;;6.80;;
49812;SDS011;35706;52.100;5.056;2024-01-30T05:08:59;13.77;;;7.78;;
49812;SDS011;35706;52.100;5.056;2024-01-30T05:09:59;10.70;;;6.50;;
49812;SDS011;35706;52.100;5.056;2024-01-30T05:11:00;11.57;;;6.65;;
49812;SDS011;35706;52.100;5.056;2024-01-30T05:12:01;14.68;;;6.78;;
49812;SDS011;35706;52.100;5.056;2024-01-30T05:13:02;11.90;;;6.30;;
49812;SDS011;35706;52.100;5.056;2024-01-30T05:14:03;12.45;;;7.30;;
49812;SDS011;35706;52.100;5.056;2024-01-30T05:15:03;12.32;;;7.28;;
49812;SDS011;35706;52.100;5.056;2024-01-30T05:16:04;10.00;;;6.57;;
49812;SDS011;35706;52.100;5.056;2024-01-30T05:17:05;8.13;;;6.32;;
49812;SDS011;35706;52.100;5.056;2024-01-30T05:18:05;16.73;;;6.35;;
49812;SDS011;35706;52.100;5.056;2024-01-30T05:19:05;10.15;;;6.93;;
49812;SDS011;35706;52.100;5.056;2024-01-30T05:20:06;10.90;;;6.40;;
49812;SDS011;35706;52.100;5.056;2024-01-30T05:21:07;9.02;;;6.15;;
49812;SDS011;35706;52.100;5.056;2024-01-30T05:22:07;14.13;;;6.95;;
49812;SDS011;35706;52.100;5.056;2024-01-30T05:23:08;11.52;;;5.78;;
49812;SDS011;35706;52.100;5.056;2024-01-30T05:24:08;10.38;;;6.85;;
49812;SDS011;35706;52.100;5.056;2024-01-30T05:25:10;11.65;;;6.82;;
49812;SDS011;35706;52.100;5.056;2024-01-30T05:26:12;11.38;;;6.50;;
49812;SDS011;35706;52.100;5.056;2024-01-30T05:27:12;11.82;;;6.50;;
49812;SDS011;35706;52.100;5.056;2024-01-30T05:28:14;9.95;;;6.13;;
49812;SDS011;35706;52.100;5.056;2024-01-30T05:29:14;8.55;;;6.53;;
49812;SDS011;35706;52.100;5.056;2024-01-30T05:30:15;10.63;;;5.75;;
49812;SDS011;35706;52.100;5.056;2024-01-30T05:31:15;13.90;;;7.00;;
49812;SDS011;35706;52.100;5.056;2024-01-30T05:32:15;11.85;;;7.05;;
49812;SDS011;35706;52.100;5.056;2024-01-30T05:33:16;12.45;;;7.55;;
49812;SDS011;35706;52.100;5.056;2024-01-30T05:34:16;12.05;;;6.78;;
49812;SDS011;35706;52.100;5.056;2024-01-30T05:35:16;9.93;;;6.10;;
49812;SDS011;35706;52.100;5.056;2024-01-30T05:36:17;11.73;;;7.20;;
49812;SDS011;35706;52.100;5.056;2024-01-30T05:37:17;14.75;;;7.07;;
49812;SDS011;35706;52.100;5.056;2024-01-30T05:38:17;13.13;;;6.88;;
49812;SDS011;35706;52.100;5.056;2024-01-30T05:39:18;10.60;;;6.32;;
49812;SDS011;35706;52.100;5.056;2024-01-30T05:40:18;10.68;;;6.18;;
49812;SDS011;35706;52.100;5.056;2024-01-30T05:41:19;10.30;;;6.50;;
49812;SDS011;35706;52.100;5.056;2024-01-30T05:42:19;12.68;;;6.78;;
49812;SDS011;35706;52.100;5.056;2024-01-30T05:43:20;13.75;;;6.40;;
49812;SDS011;35706;52.100;5.056;2024-01-30T05:44:20;9.20;;;6.25;;
49812;SDS011;35706;52.100;5.056;2024-01-30T05:45:20;9.88;;;6.38;;
49812;SDS011;35706;52.100;5.056;2024-01-30T05:46:22;17.85;;;7.50;;
49812;SDS011;35706;52.100;5.056;2024-01-30T05:47:23;10.52;;;7.10;;
49812;SDS011;35706;52.100;5.056;2024-01-30T05:48:24;8.45;;;6.47;;
49812;SDS011;35706;52.100;5.056;2024-01-30T05:49:24;12.57;;;6.78;;
49812;SDS011;35706;52.100;5.056;2024-01-30T05:50:24;11.10;;;6.45;;
49812;SDS011;35706;52.100;5.056;2024-01-30T05:51:26;9.82;;;5.88;;
49812;SDS011;35706;52.100;5.056;2024-01-30T05:52:28;11.73;;;6.00;;
49812;SDS011;35706;52.100;5.056;2024-01-30T05:53:28;10.13;;;6.60;;
49812;SDS011;35706;52.100;5.056;2024-01-30T05:54:28;11.10;;;6.60;;
49812;SDS011;35706;52.100;5.056;2024-01-30T05:55:29;9.50;;;6.38;;
49812;SDS011;35706;52.100;5.056;2024-01-30T05:56:29;13.10;;;5.53;;
49812;SDS011;35706;52.100;5.056;2024-01-30T05:57:29;9.63;;;6.53;;
49812;SDS011;35706;52.100;5.056;2024-01-30T05:58:30;9.98;;;6.35;;
49812;SDS011;35706;52.100;5.056;2024-01-30T05:59:33;9.63;;;6.10;;
49812;SDS011;35706;52.100;5.056;2024-01-30T06:00:33;13.10;;;6.68;;